createdAt,value
2018-12-24T00:01:40.908Z,1.33
2018-12-24T00:04:22.482Z,1.30
2018-12-24T00:07:03.568Z,1.23
2018-12-24T00:09:44.801Z,1.33
2018-12-24T00:12:26.304Z,1.10
2018-12-24T00:15:07.539Z,1.10
2018-12-24T00:17:49.040Z,1.80
2018-12-24T00:20:29.753Z,1.30
2018-12-24T00:23:11.038Z,1.10
2018-12-24T00:25:51.969Z,1.67
2018-12-24T00:28:32.686Z,1.73
2018-12-24T00:31:13.674Z,2.23
2018-12-24T00:33:54.693Z,1.27
2018-12-24T00:36:36.133Z,1.80
2018-12-24T00:39:17.159Z,1.60
2018-12-24T00:41:58.570Z,1.40
2018-12-24T00:44:39.730Z,1.10
2018-12-24T00:47:20.985Z,0.90
2018-12-24T00:50:01.668Z,0.90
2018-12-24T00:52:43.236Z,0.50
2018-12-24T00:55:24.104Z,0.77
2018-12-24T00:58:05.333Z,0.80
2018-12-24T01:00:46.290Z,0.97
2018-12-24T01:03:27.524Z,0.43
2018-12-24T01:06:08.774Z,0.90
2018-12-24T01:08:49.792Z,1.20
2018-12-24T01:11:30.897Z,0.60
2018-12-24T01:14:12.076Z,0.50
2018-12-24T01:16:53.417Z,0.67
2018-12-24T01:19:34.244Z,0.47
2018-12-24T01:22:14.831Z,1.03
2018-12-24T01:24:55.428Z,1.40
2018-12-24T01:28:12.969Z,1.57
2018-12-24T01:30:53.904Z,1.70
2018-12-24T01:33:34.597Z,2.10
2018-12-24T01:36:15.670Z,1.97
2018-12-24T01:38:56.028Z,2.30
2018-12-24T01:41:36.932Z,1.73
2018-12-24T01:44:17.849Z,1.40
2018-12-24T01:46:58.527Z,0.67
2018-12-24T01:49:38.918Z,0.47
2018-12-24T01:52:19.408Z,0.50
2018-12-24T01:55:00.699Z,0.40
2018-12-24T01:57:41.188Z,0.70
2018-12-24T02:00:22.033Z,0.30
2018-12-24T02:03:03.006Z,0.57
2018-12-24T02:05:43.334Z,0.43
2018-12-24T02:08:24.093Z,0.53
2018-12-24T02:11:05.138Z,0.77
2018-12-24T02:13:45.892Z,0.60
2018-12-24T02:16:26.654Z,1.00
2018-12-24T02:19:07.259Z,0.70
2018-12-24T02:21:48.000Z,0.73
2018-12-24T02:24:28.846Z,0.80
2018-12-24T02:27:09.504Z,0.40
2018-12-24T02:29:50.358Z,0.20
2018-12-24T02:32:31.229Z,0.30
2018-12-24T02:35:12.382Z,0.67
2018-12-24T02:37:52.976Z,0.40
2018-12-24T02:40:33.773Z,0.50
2018-12-24T02:43:14.615Z,0.50
2018-12-24T02:45:55.287Z,0.63
2018-12-24T02:48:36.222Z,0.40
2018-12-24T02:51:17.029Z,0.57
2018-12-24T02:53:57.749Z,0.47
2018-12-24T02:56:38.978Z,0.30
2018-12-24T02:59:20.297Z,0.60
2018-12-24T03:02:01.370Z,0.30
2018-12-24T03:04:42.100Z,0.17
2018-12-24T03:07:22.961Z,0.57
2018-12-24T03:10:03.662Z,0.90
2018-12-24T03:12:44.430Z,0.50
2018-12-24T03:15:25.222Z,0.50
2018-12-24T03:18:05.868Z,0.40
2018-12-24T03:20:46.583Z,0.33
2018-12-24T03:23:27.329Z,0.57
2018-12-24T03:26:08.297Z,0.30
2018-12-24T03:28:49.408Z,0.50
2018-12-24T03:31:30.083Z,0.40
2018-12-24T03:34:11.145Z,0.30
2018-12-24T03:36:51.928Z,0.60
2018-12-24T03:39:33.035Z,0.50
2018-12-24T03:42:13.597Z,0.20
2018-12-24T03:44:54.153Z,0.63
2018-12-24T03:47:34.957Z,0.50
2018-12-24T03:50:15.621Z,0.50
2018-12-24T03:52:56.702Z,0.50
2018-12-24T03:55:37.328Z,1.13
2018-12-24T03:58:18.247Z,1.10
2018-12-24T04:00:58.913Z,0.97
2018-12-24T04:03:39.985Z,0.67
2018-12-24T04:06:20.661Z,0.90
2018-12-24T04:09:01.454Z,0.97
2018-12-24T04:11:42.052Z,1.10
2018-12-24T04:14:22.533Z,0.80
2018-12-24T04:17:03.624Z,0.77
2018-12-24T04:19:44.534Z,1.07
2018-12-24T04:22:25.256Z,0.90
2018-12-24T04:25:06.181Z,1.20
2018-12-24T04:27:47.068Z,0.60
2018-12-24T04:30:27.766Z,0.90
2018-12-24T04:33:08.673Z,1.40
2018-12-24T04:35:49.452Z,1.23
2018-12-24T04:38:30.178Z,1.60
2018-12-24T04:41:10.828Z,1.63
2018-12-24T04:43:51.587Z,2.40
2018-12-24T04:46:32.485Z,1.70
2018-12-24T04:49:13.255Z,1.80
2018-12-24T04:51:54.074Z,2.33
2018-12-24T04:54:34.916Z,1.80
2018-12-24T04:57:15.579Z,1.70
2018-12-24T04:59:56.302Z,1.30
2018-12-24T05:02:37.544Z,0.90
2018-12-24T05:05:18.193Z,1.30
2018-12-24T05:07:58.808Z,1.40
2018-12-24T05:10:39.413Z,1.43
2018-12-24T05:13:20.259Z,1.20
2018-12-24T05:16:00.968Z,0.90
2018-12-24T05:18:41.713Z,1.37
2018-12-24T05:21:22.615Z,1.00
2018-12-24T05:24:03.488Z,0.80
2018-12-24T05:26:44.423Z,0.80
2018-12-24T05:29:25.376Z,0.77
2018-12-24T05:32:06.063Z,1.10
2018-12-24T05:34:46.669Z,1.10
2018-12-24T05:37:27.571Z,1.00
2018-12-24T05:40:08.274Z,1.07
2018-12-24T05:42:49.220Z,1.10
2018-12-24T05:45:29.694Z,0.97
2018-12-24T05:48:10.436Z,1.23
2018-12-24T05:50:51.080Z,0.97
2018-12-24T05:53:31.788Z,1.00
2018-12-24T05:56:12.604Z,1.13
2018-12-24T05:58:53.287Z,1.10
2018-12-24T06:01:33.989Z,1.30
2018-12-24T06:04:14.840Z,1.40
2018-12-24T06:06:55.777Z,1.20
2018-12-24T06:09:36.721Z,1.40
2018-12-24T06:12:17.453Z,1.20
2018-12-24T06:14:58.548Z,1.40
2018-12-24T06:17:39.221Z,1.40
2018-12-24T06:20:20.041Z,1.07
2018-12-24T06:23:00.811Z,1.00
2018-12-24T06:25:41.517Z,0.60
2018-12-24T06:28:22.454Z,1.00
2018-12-24T06:31:03.307Z,1.13
2018-12-24T06:33:44.200Z,0.93
2018-12-24T06:36:25.268Z,0.90
2018-12-24T06:39:06.190Z,0.93
2018-12-24T06:41:47.007Z,0.90
2018-12-24T06:44:28.090Z,0.97
2018-12-24T06:47:08.760Z,1.10
2018-12-24T06:49:49.627Z,1.40
2018-12-24T06:52:30.377Z,0.93
2018-12-24T06:55:11.063Z,1.20
2018-12-24T06:57:51.773Z,1.07
2018-12-24T07:00:32.504Z,1.43
2018-12-24T07:03:13.348Z,1.50
2018-12-24T07:05:54.073Z,1.53
2018-12-24T07:08:34.981Z,1.03
2018-12-24T07:11:15.901Z,1.23
2018-12-24T07:13:56.561Z,1.60
2018-12-24T07:16:37.348Z,1.37
2018-12-24T07:19:18.047Z,1.20
2018-12-24T07:21:58.837Z,1.50
2018-12-24T07:24:39.684Z,2.27
2018-12-24T07:27:20.575Z,2.63
2018-12-24T07:30:01.411Z,2.77
2018-12-24T07:32:42.164Z,2.60
2018-12-24T07:35:22.923Z,2.23
2018-12-24T07:38:03.718Z,2.00
2018-12-24T07:40:44.436Z,2.03
2018-12-24T07:43:25.102Z,1.80
2018-12-24T07:46:05.857Z,2.47
2018-12-24T07:48:46.898Z,2.77
2018-12-24T07:51:27.241Z,2.37
2018-12-24T07:54:08.172Z,2.83
2018-12-24T07:56:48.905Z,3.37
2018-12-24T07:59:29.557Z,2.93
2018-12-24T08:02:10.376Z,3.37
2018-12-24T08:04:51.406Z,3.37
2018-12-24T08:07:32.234Z,2.80
2018-12-24T08:10:12.970Z,3.03
2018-12-24T08:12:54.029Z,3.00
2018-12-24T08:15:34.849Z,2.87
2018-12-24T08:18:15.670Z,3.30
2018-12-24T08:20:56.381Z,4.37
2018-12-24T08:23:37.225Z,4.03
2018-12-24T08:26:18.214Z,4.90
2018-12-24T08:28:58.920Z,5.20
2018-12-24T08:31:39.796Z,5.03
2018-12-24T08:34:20.439Z,5.30
2018-12-24T08:37:01.109Z,6.17
2018-12-24T08:39:42.173Z,6.20
2018-12-24T08:42:22.805Z,5.83
2018-12-24T08:45:03.928Z,6.00
2018-12-24T08:47:44.587Z,6.00
2018-12-24T08:50:25.501Z,4.60
2018-12-24T08:53:06.245Z,5.20
2018-12-24T08:55:47.061Z,4.47
2018-12-24T08:58:27.849Z,4.50
2018-12-24T09:01:08.502Z,4.30
2018-12-24T09:03:49.261Z,5.20
2018-12-24T09:06:30.138Z,4.67
2018-12-24T09:09:10.826Z,5.57
2018-12-24T09:11:51.526Z,5.97
2018-12-24T09:14:32.337Z,5.47
2018-12-24T09:17:13.128Z,5.67
2018-12-24T09:19:53.980Z,4.87
2018-12-24T09:22:34.824Z,3.97
2018-12-24T09:25:15.805Z,4.80
2018-12-24T09:27:56.601Z,5.07
2018-12-24T09:30:37.257Z,4.97
2018-12-24T09:33:18.039Z,3.63
2018-12-24T09:35:58.961Z,4.80
2018-12-24T09:38:39.689Z,4.10
2018-12-24T09:41:20.406Z,4.10
2018-12-24T09:44:01.244Z,4.40
2018-12-24T09:46:42.021Z,5.20
2018-12-24T09:49:23.024Z,4.70
2018-12-24T09:52:03.833Z,5.60
2018-12-24T09:54:44.589Z,5.30
2018-12-24T09:57:25.478Z,5.80
2018-12-24T10:00:06.209Z,6.30
2018-12-24T10:02:46.866Z,5.13
2018-12-24T10:05:27.653Z,5.53
2018-12-24T10:08:08.410Z,5.47
2018-12-24T10:10:49.197Z,4.33
2018-12-24T10:13:30.097Z,4.10
2018-12-24T10:16:11.091Z,4.13
2018-12-24T10:18:51.508Z,3.40
2018-12-24T10:21:32.357Z,3.80
2018-12-24T10:24:13.164Z,3.83
2018-12-24T10:26:53.917Z,4.30
2018-12-24T10:29:34.640Z,3.47
2018-12-24T10:32:15.429Z,4.50
2018-12-24T10:34:56.218Z,3.90
2018-12-24T10:37:36.972Z,3.70
2018-12-24T10:40:17.580Z,3.50
2018-12-24T10:42:58.077Z,2.60
2018-12-24T10:45:38.793Z,3.40
2018-12-24T10:48:19.562Z,3.23
2018-12-24T10:51:00.436Z,3.50
2018-12-24T10:53:41.102Z,3.30
2018-12-24T10:56:21.878Z,2.90
2018-12-24T10:59:02.793Z,3.10
2018-12-24T11:01:44.773Z,3.53
2018-12-24T11:04:25.760Z,3.50
2018-12-24T11:07:06.532Z,3.73
2018-12-24T11:09:47.229Z,3.60
2018-12-24T11:12:28.093Z,3.67
2018-12-24T11:15:08.902Z,4.10
2018-12-24T11:17:49.859Z,4.27
2018-12-24T11:20:30.501Z,4.13
2018-12-24T11:23:11.110Z,4.17
2018-12-24T11:25:51.868Z,3.90
2018-12-24T11:28:32.660Z,3.60
2018-12-24T11:31:13.352Z,3.00
2018-12-24T11:33:54.219Z,3.53
2018-12-24T11:36:35.108Z,3.17
2018-12-24T11:39:15.900Z,2.20
2018-12-24T11:41:57.242Z,2.40
2018-12-24T11:44:37.765Z,2.83
2018-12-24T11:47:18.389Z,3.60
2018-12-24T11:49:58.829Z,3.30
2018-12-24T11:52:39.625Z,2.90
2018-12-24T11:55:20.204Z,2.67
2018-12-24T11:58:01.013Z,2.70
2018-12-24T12:00:41.782Z,2.73
2018-12-24T12:03:22.612Z,2.83
2018-12-24T12:06:03.234Z,2.50
2018-12-24T12:08:44.245Z,2.83
2018-12-24T12:11:24.901Z,3.10
2018-12-24T12:14:05.820Z,2.73
2018-12-24T12:16:46.530Z,3.40
2018-12-24T12:19:27.160Z,3.43
2018-12-24T12:22:07.815Z,3.00
2018-12-24T12:24:48.786Z,3.20
2018-12-24T12:27:29.584Z,3.17
2018-12-24T12:30:10.322Z,2.87
2018-12-24T12:32:51.232Z,2.87
2018-12-24T12:35:31.883Z,2.60
2018-12-24T12:38:12.732Z,3.00
2018-12-24T12:40:53.748Z,3.10
2018-12-24T12:43:34.400Z,3.13
2018-12-24T12:46:15.269Z,2.27
2018-12-24T12:48:56.036Z,2.70
2018-12-24T12:51:36.690Z,2.93
2018-12-24T12:54:17.444Z,2.63
2018-12-24T12:56:58.078Z,2.53
2018-12-24T12:59:38.604Z,3.00
2018-12-24T13:02:19.405Z,2.23
2018-12-24T13:04:59.996Z,2.63
2018-12-24T13:07:40.908Z,2.40
2018-12-24T13:10:21.590Z,2.40
2018-12-24T13:13:02.383Z,1.90
2018-12-24T13:15:43.137Z,2.10
2018-12-24T13:18:24.012Z,2.17
2018-12-24T13:21:04.683Z,2.03
2018-12-24T13:23:45.229Z,2.20
2018-12-24T13:26:25.889Z,1.93
2018-12-24T13:29:06.720Z,2.10
2018-12-24T13:31:47.525Z,2.03
2018-12-24T13:34:28.801Z,2.03
2018-12-24T13:37:09.676Z,1.80
2018-12-24T13:39:50.771Z,1.90
2018-12-24T13:42:31.432Z,1.83
2018-12-24T13:45:12.113Z,1.70
2018-12-24T13:47:53.186Z,1.90
2018-12-24T13:50:34.027Z,2.07
2018-12-24T13:53:14.908Z,1.60
2018-12-24T13:55:55.632Z,1.90
2018-12-24T13:58:36.464Z,1.33
2018-12-24T14:01:17.147Z,1.43
2018-12-24T14:03:57.868Z,2.40
2018-12-24T14:06:38.780Z,1.63
2018-12-24T14:09:19.541Z,1.30
2018-12-24T14:12:00.436Z,1.60
2018-12-24T14:14:41.244Z,1.50
2018-12-24T14:17:22.075Z,1.80
2018-12-24T14:20:02.676Z,1.90
2018-12-24T14:22:46.832Z,1.80
2018-12-24T14:25:27.547Z,1.70
2018-12-24T14:28:08.487Z,1.50
2018-12-24T14:30:49.443Z,2.30
2018-12-24T14:33:30.375Z,1.80
2018-12-24T14:36:11.208Z,2.37
2018-12-24T14:38:52.054Z,1.73
2018-12-24T14:41:32.754Z,2.43
2018-12-24T14:44:13.469Z,2.00
2018-12-24T14:46:54.177Z,1.90
2018-12-24T14:49:34.850Z,2.10
2018-12-24T14:52:15.749Z,1.70
2018-12-24T14:54:56.709Z,1.47
2018-12-24T14:57:37.517Z,1.80
2018-12-24T15:00:18.418Z,2.00
2018-12-24T15:02:59.173Z,1.47
2018-12-24T15:05:40.004Z,1.60
2018-12-24T15:08:21.175Z,1.60
2018-12-24T15:11:02.429Z,1.43
2018-12-24T15:13:43.194Z,1.83
2018-12-24T15:16:24.116Z,1.77
2018-12-24T15:19:05.071Z,1.63
2018-12-24T15:21:45.684Z,1.93
2018-12-24T15:24:26.770Z,1.63
2018-12-24T15:27:08.018Z,1.43
2018-12-24T15:29:48.398Z,1.60
2018-12-24T15:32:29.178Z,1.30
2018-12-24T15:35:09.904Z,2.20
2018-12-24T15:37:50.845Z,1.57
2018-12-24T15:40:31.668Z,1.73
2018-12-24T15:43:12.132Z,2.00
2018-12-24T15:45:52.722Z,1.93
2018-12-24T15:48:33.456Z,2.43
2018-12-24T15:51:14.136Z,2.73
2018-12-24T15:53:54.966Z,2.90
2018-12-24T15:56:35.806Z,3.57
2018-12-24T15:59:16.566Z,3.10
2018-12-24T16:01:57.624Z,3.33
2018-12-24T16:04:38.402Z,2.70
2018-12-24T16:07:19.353Z,2.90
2018-12-24T16:10:00.348Z,3.27
2018-12-24T16:12:41.629Z,3.30
2018-12-24T16:15:22.700Z,3.37
2018-12-24T16:18:03.157Z,3.60
2018-12-24T16:20:44.698Z,4.23
2018-12-24T16:23:25.286Z,3.83
2018-12-24T16:26:05.895Z,4.43
2018-12-24T16:28:47.018Z,4.10
2018-12-24T16:31:27.648Z,4.17
2018-12-24T16:34:09.174Z,2.93
2018-12-24T16:36:50.107Z,3.03
2018-12-24T16:39:31.073Z,2.60
2018-12-24T16:42:12.361Z,2.43
2018-12-24T16:44:52.834Z,2.70
2018-12-24T16:47:33.529Z,2.90
2018-12-24T16:53:03.790Z,2.70
2018-12-24T16:55:44.466Z,3.50
2018-12-24T16:58:25.163Z,4.37
2018-12-24T17:01:06.010Z,10.93
2018-12-24T17:03:46.699Z,10.13
2018-12-24T17:06:27.837Z,6.60
2018-12-24T17:09:08.809Z,4.90
2018-12-24T17:11:50.971Z,5.27
2018-12-24T17:14:31.989Z,5.90
2018-12-24T17:17:12.942Z,5.43
2018-12-24T17:19:53.680Z,3.90
2018-12-24T17:22:34.551Z,3.90
2018-12-24T17:25:15.659Z,3.80
2018-12-24T17:27:56.251Z,8.40
2018-12-24T17:30:36.957Z,13.60
2018-12-24T17:33:17.732Z,3.63
2018-12-24T17:35:58.678Z,7.77
2018-12-24T17:38:39.433Z,3.23
2018-12-24T17:41:20.297Z,4.57
2018-12-24T17:44:00.933Z,10.67
2018-12-24T17:46:41.773Z,9.17
2018-12-24T17:49:22.497Z,6.87
2018-12-24T17:52:03.437Z,5.43
2018-12-24T17:54:44.226Z,10.93
2018-12-24T17:57:25.105Z,4.40
2018-12-24T18:00:06.105Z,4.60
2018-12-24T18:02:47.013Z,4.67
2018-12-24T18:05:28.077Z,3.57
2018-12-24T18:08:09.128Z,3.70
2018-12-24T18:10:50.641Z,3.90
2018-12-24T18:13:31.752Z,4.53
2018-12-24T18:16:12.470Z,3.63
2018-12-24T18:18:53.285Z,3.53
2018-12-24T18:21:34.025Z,3.93
2018-12-24T18:24:15.001Z,4.33
2018-12-24T18:26:56.344Z,3.60
2018-12-24T18:29:37.171Z,4.23
2018-12-24T18:32:18.120Z,4.83
2018-12-24T18:34:59.072Z,4.47
2018-12-24T18:37:39.762Z,4.40
2018-12-24T18:40:20.366Z,5.07
2018-12-24T18:43:01.097Z,5.13
2018-12-24T18:45:41.949Z,4.90
2018-12-24T18:48:22.627Z,5.00
2018-12-24T18:51:03.549Z,5.70
2018-12-24T18:53:44.625Z,5.27
2018-12-24T18:56:25.501Z,4.83
2018-12-24T18:59:06.073Z,5.10
2018-12-24T19:01:46.958Z,7.70
2018-12-24T19:04:27.685Z,5.17
2018-12-24T19:07:08.347Z,4.33
2018-12-24T19:09:49.133Z,13.47
2018-12-24T19:12:29.764Z,5.63
2018-12-24T19:15:10.433Z,7.40
2018-12-24T19:17:51.168Z,6.10
2018-12-24T19:20:32.089Z,6.60
2018-12-24T19:23:12.961Z,5.70
2018-12-24T19:25:53.786Z,4.90
2018-12-24T19:28:34.621Z,5.80
2018-12-24T19:31:15.141Z,11.30
2018-12-24T19:33:55.674Z,13.83
2018-12-24T19:36:36.498Z,16.53
2018-12-24T19:39:17.413Z,7.27
2018-12-24T19:41:58.304Z,8.90
2018-12-24T19:44:38.949Z,6.90
2018-12-24T19:47:19.836Z,6.47
2018-12-24T19:50:00.624Z,5.73
2018-12-24T19:52:41.403Z,6.00
2018-12-24T19:55:22.245Z,6.27
2018-12-24T19:58:03.137Z,5.80
2018-12-24T20:00:43.977Z,4.97
2018-12-24T20:03:24.715Z,5.90
2018-12-24T20:06:05.403Z,5.50
2018-12-24T20:08:46.237Z,6.27
2018-12-24T20:11:26.936Z,5.63
2018-12-24T20:14:07.806Z,5.77
2018-12-24T20:16:48.600Z,5.73
2018-12-24T20:19:29.533Z,5.87
2018-12-24T20:22:10.439Z,5.83
2018-12-24T20:24:51.334Z,5.77
2018-12-24T20:27:32.338Z,5.33
2018-12-24T20:30:12.895Z,6.17
2018-12-24T20:32:53.805Z,6.47
2018-12-24T20:35:34.473Z,5.20
2018-12-24T20:38:15.156Z,5.60
2018-12-24T20:40:56.105Z,6.37
2018-12-24T20:43:36.681Z,7.73
2018-12-24T20:46:17.593Z,10.37
2018-12-24T20:48:58.363Z,10.30
2018-12-24T20:51:39.013Z,9.07
2018-12-24T20:54:19.792Z,7.43
2018-12-24T20:57:00.473Z,6.93
2018-12-24T20:59:41.372Z,5.83
2018-12-24T21:02:22.237Z,6.90
2018-12-24T21:05:03.013Z,5.53
2018-12-24T21:07:43.743Z,6.17
2018-12-24T21:10:25.064Z,6.57
2018-12-24T21:13:05.908Z,6.53
2018-12-24T21:15:46.509Z,6.10
2018-12-24T21:18:27.349Z,5.93
2018-12-24T21:21:07.901Z,5.03
2018-12-24T21:23:48.540Z,5.47
2018-12-24T21:26:28.920Z,5.70
2018-12-24T21:29:09.704Z,5.47
2018-12-24T21:31:50.560Z,5.83
2018-12-24T21:34:31.568Z,5.57
2018-12-24T21:37:12.362Z,6.17
2018-12-24T21:39:53.356Z,6.33
2018-12-24T21:42:34.383Z,7.53
2018-12-24T21:45:15.341Z,6.77
2018-12-24T21:47:55.921Z,7.90
2018-12-24T21:50:36.698Z,7.63
2018-12-24T21:53:17.441Z,7.10
2018-12-24T21:55:58.013Z,7.40
2018-12-24T21:58:38.928Z,7.00
2018-12-24T22:01:19.469Z,7.57
2018-12-24T22:04:00.317Z,8.40
2018-12-24T22:06:41.205Z,8.73
2018-12-24T22:09:22.000Z,8.73
2018-12-24T22:12:02.705Z,9.00
2018-12-24T22:14:43.577Z,8.27
2018-12-24T22:17:24.247Z,8.83
2018-12-24T22:20:05.247Z,8.30
2018-12-24T22:22:45.884Z,10.77
2018-12-24T22:25:26.785Z,9.27
2018-12-24T22:28:07.697Z,8.90
2018-12-24T22:30:48.507Z,9.20
2018-12-24T22:33:29.456Z,9.67
2018-12-24T22:36:10.369Z,10.87
2018-12-24T22:38:50.985Z,12.23
2018-12-24T22:41:31.819Z,11.47
2018-12-24T22:44:12.604Z,11.17
2018-12-24T22:46:53.044Z,9.73
2018-12-24T22:49:33.906Z,8.97
2018-12-24T22:52:15.097Z,9.33
2018-12-24T22:54:56.175Z,9.67
2018-12-24T22:57:36.873Z,9.67
2018-12-24T23:03:32.091Z,10.00
2018-12-24T23:06:12.812Z,8.83
2018-12-24T23:08:53.376Z,9.53
2018-12-24T23:11:34.136Z,9.30
2018-12-24T23:14:14.878Z,9.77
2018-12-24T23:16:55.718Z,9.70
2018-12-24T23:19:36.409Z,10.33
2018-12-24T23:22:17.448Z,10.20
2018-12-24T23:24:58.397Z,9.27
2018-12-24T23:27:38.952Z,9.70
2018-12-24T23:30:19.684Z,10.73
2018-12-24T23:33:00.694Z,10.27
2018-12-24T23:35:41.465Z,12.10
2018-12-24T23:38:22.076Z,9.83
2018-12-24T23:41:02.761Z,8.70
2018-12-24T23:43:43.689Z,11.27
2018-12-24T23:46:24.563Z,10.60
2018-12-24T23:49:05.405Z,9.03
2018-12-24T23:51:46.385Z,10.30
2018-12-24T23:54:27.122Z,9.57
2018-12-24T23:57:07.926Z,9.80
2018-12-24T23:59:48.692Z,10.17
